sensor_id;sensor_type;location;lat;lon;timestamp;P1;durP1;ratioP1;P2;durP2;ratioP2
22752;SDS011;11543;43.144;24.684;2024-03-08T00:00:17;10.48;;;7.03;;
22752;SDS011;11543;43.144;24.684;2024-03-08T00:05:12;10.02;;;6.20;;
22752;SDS011;11543;43.144;24.684;2024-03-08T00:07:43;10.10;;;6.13;;
22752;SDS011;11543;43.144;24.684;2024-03-08T00:10:09;9.07;;;6.10;;
22752;SDS011;11543;43.144;24.684;2024-03-08T00:12:37;9.40;;;6.28;;
22752;SDS011;11543;43.144;24.684;2024-03-08T00:15:17;10.70;;;6.63;;
22752;SDS011;11543;43.144;24.684;2024-03-08T00:17:46;12.35;;;6.70;;
22752;SDS011;11543;43.144;24.684;2024-03-08T00:20:19;11.05;;;7.15;;
22752;SDS011;11543;43.144;24.684;2024-03-08T00:23:03;13.07;;;7.47;;
22752;SDS011;11543;43.144;24.684;2024-03-08T00:25:40;12.38;;;7.65;;
22752;SDS011;11543;43.144;24.684;2024-03-08T00:28:28;11.65;;;6.85;;
22752;SDS011;11543;43.144;24.684;2024-03-08T00:30:56;11.85;;;7.63;;
22752;SDS011;11543;43.144;24.684;2024-03-08T00:33:25;13.17;;;7.20;;
22752;SDS011;11543;43.144;24.684;2024-03-08T00:35:50;12.75;;;7.35;;
22752;SDS011;11543;43.144;24.684;2024-03-08T00:41:05;12.02;;;6.60;;
22752;SDS011;11543;43.144;24.684;2024-03-08T00:43:33;10.85;;;7.15;;
22752;SDS011;11543;43.144;24.684;2024-03-08T00:45:59;9.98;;;6.55;;
22752;SDS011;11543;43.144;24.684;2024-03-08T00:48:25;12.10;;;7.43;;
22752;SDS011;11543;43.144;24.684;2024-03-08T00:50:50;11.68;;;6.35;;
22752;SDS011;11543;43.144;24.684;2024-03-08T00:53:16;11.68;;;7.07;;
22752;SDS011;11543;43.144;24.684;2024-03-08T00:55:49;20.20;;;13.25;;
22752;SDS011;11543;43.144;24.684;2024-03-08T00:58:33;23.70;;;15.50;;
22752;SDS011;11543;43.144;24.684;2024-03-08T01:01:24;24.33;;;16.10;;
22752;SDS011;11543;43.144;24.684;2024-03-08T01:06:52;27.58;;;17.48;;
22752;SDS011;11543;43.144;24.684;2024-03-08T01:09:17;31.35;;;18.50;;
22752;SDS011;11543;43.144;24.684;2024-03-08T01:15:19;30.75;;;18.60;;
22752;SDS011;11543;43.144;24.684;2024-03-08T01:17:52;32.58;;;19.90;;
22752;SDS011;11543;43.144;24.684;2024-03-08T01:20:39;31.38;;;18.50;;
22752;SDS011;11543;43.144;24.684;2024-03-08T01:23:06;31.02;;;18.65;;
22752;SDS011;11543;43.144;24.684;2024-03-08T01:25:32;29.50;;;18.85;;
22752;SDS011;11543;43.144;24.684;2024-03-08T01:28:25;31.60;;;17.52;;
22752;SDS011;11543;43.144;24.684;2024-03-08T01:31:18;26.30;;;16.63;;
22752;SDS011;11543;43.144;24.684;2024-03-08T01:33:54;28.42;;;18.17;;
22752;SDS011;11543;43.144;24.684;2024-03-08T01:36:47;31.50;;;18.73;;
22752;SDS011;11543;43.144;24.684;2024-03-08T01:39:18;31.88;;;19.23;;
22752;SDS011;11543;43.144;24.684;2024-03-08T01:41:54;29.58;;;19.42;;
22752;SDS011;11543;43.144;24.684;2024-03-08T01:44:32;35.88;;;21.30;;
22752;SDS011;11543;43.144;24.684;2024-03-08T01:47:26;33.20;;;19.75;;
22752;SDS011;11543;43.144;24.684;2024-03-08T01:49:52;31.75;;;19.30;;
22752;SDS011;11543;43.144;24.684;2024-03-08T01:52:18;33.42;;;20.20;;
22752;SDS011;11543;43.144;24.684;2024-03-08T01:54:45;34.95;;;20.58;;
22752;SDS011;11543;43.144;24.684;2024-03-08T01:57:11;35.40;;;21.08;;
22752;SDS011;11543;43.144;24.684;2024-03-08T01:59:40;35.90;;;20.70;;
22752;SDS011;11543;43.144;24.684;2024-03-08T02:02:09;32.88;;;20.65;;
22752;SDS011;11543;43.144;24.684;2024-03-08T02:04:36;34.50;;;20.95;;
22752;SDS011;11543;43.144;24.684;2024-03-08T02:07:09;36.13;;;20.73;;
22752;SDS011;11543;43.144;24.684;2024-03-08T02:09:37;38.67;;;20.55;;
22752;SDS011;11543;43.144;24.684;2024-03-08T02:12:05;40.17;;;22.30;;
22752;SDS011;11543;43.144;24.684;2024-03-08T02:14:35;40.25;;;21.85;;
22752;SDS011;11543;43.144;24.684;2024-03-08T02:17:10;40.33;;;23.10;;
22752;SDS011;11543;43.144;24.684;2024-03-08T02:19:38;38.90;;;23.73;;
22752;SDS011;11543;43.144;24.684;2024-03-08T02:22:06;43.10;;;22.67;;
22752;SDS011;11543;43.144;24.684;2024-03-08T02:24:34;42.50;;;23.42;;
22752;SDS011;11543;43.144;24.684;2024-03-08T02:27:25;45.58;;;23.83;;
22752;SDS011;11543;43.144;24.684;2024-03-08T02:29:55;42.17;;;22.90;;
22752;SDS011;11543;43.144;24.684;2024-03-08T02:32:42;47.67;;;23.88;;
22752;SDS011;11543;43.144;24.684;2024-03-08T02:35:31;41.75;;;23.23;;
22752;SDS011;11543;43.144;24.684;2024-03-08T02:38:32;45.58;;;23.10;;
22752;SDS011;11543;43.144;24.684;2024-03-08T02:41:18;44.38;;;23.73;;
22752;SDS011;11543;43.144;24.684;2024-03-08T02:43:51;46.28;;;24.27;;
22752;SDS011;11543;43.144;24.684;2024-03-08T02:46:16;46.40;;;24.30;;
22752;SDS011;11543;43.144;24.684;2024-03-08T02:48:42;50.97;;;25.83;;
22752;SDS011;11543;43.144;24.684;2024-03-08T02:51:08;47.85;;;25.77;;
22752;SDS011;11543;43.144;24.684;2024-03-08T02:53:35;52.42;;;25.50;;
22752;SDS011;11543;43.144;24.684;2024-03-08T02:56:06;44.38;;;25.40;;
22752;SDS011;11543;43.144;24.684;2024-03-08T02:58:39;50.00;;;26.15;;
22752;SDS011;11543;43.144;24.684;2024-03-08T03:01:26;44.50;;;24.50;;
22752;SDS011;11543;43.144;24.684;2024-03-08T03:04:04;46.67;;;24.80;;
22752;SDS011;11543;43.144;24.684;2024-03-08T03:06:42;44.75;;;25.67;;
22752;SDS011;11543;43.144;24.684;2024-03-08T03:09:11;46.22;;;24.55;;
22752;SDS011;11543;43.144;24.684;2024-03-08T03:11:39;41.38;;;24.20;;
22752;SDS011;11543;43.144;24.684;2024-03-08T03:14:05;44.63;;;24.42;;
22752;SDS011;11543;43.144;24.684;2024-03-08T03:16:32;40.03;;;22.65;;
22752;SDS011;11543;43.144;24.684;2024-03-08T03:19:07;42.35;;;24.10;;
22752;SDS011;11543;43.144;24.684;2024-03-08T03:21:34;40.38;;;23.55;;
22752;SDS011;11543;43.144;24.684;2024-03-08T03:24:01;46.70;;;23.20;;
22752;SDS011;11543;43.144;24.684;2024-03-08T03:26:38;44.30;;;24.05;;
22752;SDS011;11543;43.144;24.684;2024-03-08T03:29:11;41.28;;;23.30;;
22752;SDS011;11543;43.144;24.684;2024-03-08T03:31:37;40.50;;;23.25;;
22752;SDS011;11543;43.144;24.684;2024-03-08T03:34:02;42.63;;;24.13;;
22752;SDS011;11543;43.144;24.684;2024-03-08T03:36:29;43.33;;;23.90;;
22752;SDS011;11543;43.144;24.684;2024-03-08T03:38:55;46.47;;;24.48;;
22752;SDS011;11543;43.144;24.684;2024-03-08T03:41:50;42.35;;;23.80;;
22752;SDS011;11543;43.144;24.684;2024-03-08T03:44:17;42.85;;;24.38;;
22752;SDS011;11543;43.144;24.684;2024-03-08T03:47:05;43.70;;;23.92;;
22752;SDS011;11543;43.144;24.684;2024-03-08T03:49:39;44.72;;;24.75;;
22752;SDS011;11543;43.144;24.684;2024-03-08T03:53:01;44.88;;;23.55;;
22752;SDS011;11543;43.144;24.684;2024-03-08T03:55:35;44.10;;;23.55;;
22752;SDS011;11543;43.144;24.684;2024-03-08T03:58:24;43.45;;;23.35;;
22752;SDS011;11543;43.144;24.684;2024-03-08T04:00:59;39.33;;;22.85;;
22752;SDS011;11543;43.144;24.684;2024-03-08T04:03:25;42.03;;;22.67;;
22752;SDS011;11543;43.144;24.684;2024-03-08T04:05:56;36.80;;;21.77;;
22752;SDS011;11543;43.144;24.684;2024-03-08T04:08:31;41.47;;;22.10;;
22752;SDS011;11543;43.144;24.684;2024-03-08T04:10:59;36.40;;;20.77;;
22752;SDS011;11543;43.144;24.684;2024-03-08T04:13:25;36.13;;;20.50;;
22752;SDS011;11543;43.144;24.684;2024-03-08T04:15:53;35.88;;;21.23;;
22752;SDS011;11543;43.144;24.684;2024-03-08T04:18:26;36.47;;;21.17;;
22752;SDS011;11543;43.144;24.684;2024-03-08T04:21:02;36.15;;;21.25;;
22752;SDS011;11543;43.144;24.684;2024-03-08T04:23:28;36.78;;;21.27;;
22752;SDS011;11543;43.144;24.684;2024-03-08T04:26:04;36.25;;;21.48;;
22752;SDS011;11543;43.144;24.684;2024-03-08T04:28:37;34.50;;;20.42;;
22752;SDS011;11543;43.144;24.684;2024-03-08T04:31:08;36.28;;;21.25;;
22752;SDS011;11543;43.144;24.684;2024-03-08T04:33:36;33.55;;;19.70;;
22752;SDS011;11543;43.144;24.684;2024-03-08T04:36:01;33.30;;;19.98;;
22752;SDS011;11543;43.144;24.684;2024-03-08T04:38:30;34.65;;;21.15;;
22752;SDS011;11543;43.144;24.684;2024-03-08T04:41:01;35.15;;;20.45;;
22752;SDS011;11543;43.144;24.684;2024-03-08T04:43:27;34.28;;;19.63;;
22752;SDS011;11543;43.144;24.684;2024-03-08T04:45:55;38.10;;;21.58;;
22752;SDS011;11543;43.144;24.684;2024-03-08T04:48:20;34.60;;;21.10;;
22752;SDS011;11543;43.144;24.684;2024-03-08T04:50:46;35.15;;;20.67;;
22752;SDS011;11543;43.144;24.684;2024-03-08T04:53:12;34.08;;;19.55;;
22752;SDS011;11543;43.144;24.684;2024-03-08T04:55:37;37.42;;;21.48;;
22752;SDS011;11543;43.144;24.684;2024-03-08T04:58:03;38.75;;;23.05;;
22752;SDS011;11543;43.144;24.684;2024-03-08T05:00:32;39.85;;;22.92;;
22752;SDS011;11543;43.144;24.684;2024-03-08T05:02:58;41.83;;;24.13;;
22752;SDS011;11543;43.144;24.684;2024-03-08T05:05:24;44.58;;;26.15;;
22752;SDS011;11543;43.144;24.684;2024-03-08T05:07:50;44.88;;;25.67;;
22752;SDS011;11543;43.144;24.684;2024-03-08T05:10:15;44.50;;;25.23;;
22752;SDS011;11543;43.144;24.684;2024-03-08T05:12:44;50.83;;;26.52;;
22752;SDS011;11543;43.144;24.684;2024-03-08T05:15:11;46.33;;;25.73;;
22752;SDS011;11543;43.144;24.684;2024-03-08T05:17:40;46.08;;;25.58;;
22752;SDS011;11543;43.144;24.684;2024-03-08T05:40:52;43.03;;;24.50;;
22752;SDS011;11543;43.144;24.684;2024-03-08T05:58:04;38.47;;;22.83;;
22752;SDS011;11543;43.144;24.684;2024-03-08T06:22:04;32.17;;;18.35;;
22752;SDS011;11543;43.144;24.684;2024-03-08T06:28:35;31.02;;;18.45;;
22752;SDS011;11543;43.144;24.684;2024-03-08T06:31:24;27.50;;;17.67;;
22752;SDS011;11543;43.144;24.684;2024-03-08T06:34:12;28.48;;;17.40;;
22752;SDS011;11543;43.144;24.684;2024-03-08T06:36:57;26.70;;;16.90;;
22752;SDS011;11543;43.144;24.684;2024-03-08T06:39:49;24.50;;;15.88;;
22752;SDS011;11543;43.144;24.684;2024-03-08T06:42:29;26.05;;;16.00;;
22752;SDS011;11543;43.144;24.684;2024-03-08T06:45:07;27.85;;;17.17;;
22752;SDS011;11543;43.144;24.684;2024-03-08T06:47:40;25.88;;;16.92;;
22752;SDS011;11543;43.144;24.684;2024-03-08T06:50:06;26.83;;;16.50;;
22752;SDS011;11543;43.144;24.684;2024-03-08T06:52:48;25.17;;;15.30;;
22752;SDS011;11543;43.144;24.684;2024-03-08T06:55:21;26.60;;;14.82;;
22752;SDS011;11543;43.144;24.684;2024-03-08T06:57:49;28.38;;;16.30;;
22752;SDS011;11543;43.144;24.684;2024-03-08T07:00:24;22.70;;;14.18;;
22752;SDS011;11543;43.144;24.684;2024-03-08T07:02:52;22.60;;;14.70;;
22752;SDS011;11543;43.144;24.684;2024-03-08T07:05:39;21.77;;;14.13;;
22752;SDS011;11543;43.144;24.684;2024-03-08T07:08:09;19.27;;;13.30;;
22752;SDS011;11543;43.144;24.684;2024-03-08T07:10:40;22.17;;;13.93;;
22752;SDS011;11543;43.144;24.684;2024-03-08T07:13:13;19.65;;;13.45;;
22752;SDS011;11543;43.144;24.684;2024-03-08T07:15:39;21.60;;;13.25;;
22752;SDS011;11543;43.144;24.684;2024-03-08T07:18:05;20.45;;;13.48;;
22752;SDS011;11543;43.144;24.684;2024-03-08T07:20:40;21.77;;;14.27;;
22752;SDS011;11543;43.144;24.684;2024-03-08T07:23:16;24.80;;;14.90;;
22752;SDS011;11543;43.144;24.684;2024-03-08T07:26:02;22.98;;;14.70;;
22752;SDS011;11543;43.144;24.684;2024-03-08T07:31:35;22.73;;;14.30;;
22752;SDS011;11543;43.144;24.684;2024-03-08T07:34:29;23.02;;;14.77;;
22752;SDS011;11543;43.144;24.684;2024-03-08T07:37:23;28.05;;;16.63;;
22752;SDS011;11543;43.144;24.684;2024-03-08T07:39:53;30.05;;;17.73;;
22752;SDS011;11543;43.144;24.684;2024-03-08T07:42:26;32.15;;;19.67;;
22752;SDS011;11543;43.144;24.684;2024-03-08T07:44:58;36.60;;;21.83;;
22752;SDS011;11543;43.144;24.684;2024-03-08T07:47:33;34.88;;;22.10;;
22752;SDS011;11543;43.144;24.684;2024-03-08T07:50:18;36.78;;;22.95;;
22752;SDS011;11543;43.144;24.684;2024-03-08T07:52:53;36.40;;;22.50;;
22752;SDS011;11543;43.144;24.684;2024-03-08T07:55:32;38.37;;;23.23;;
22752;SDS011;11543;43.144;24.684;2024-03-08T07:58:03;40.55;;;24.08;;
22752;SDS011;11543;43.144;24.684;2024-03-08T08:00:38;38.53;;;23.52;;
22752;SDS011;11543;43.144;24.684;2024-03-08T08:03:10;40.40;;;24.63;;
22752;SDS011;11543;43.144;24.684;2024-03-08T08:05:36;44.13;;;25.67;;
22752;SDS011;11543;43.144;24.684;2024-03-08T08:08:16;47.85;;;27.20;;
22752;SDS011;11543;43.144;24.684;2024-03-08T08:10:46;45.85;;;27.08;;
22752;SDS011;11543;43.144;24.684;2024-03-08T08:13:28;45.08;;;26.42;;
22752;SDS011;11543;43.144;24.684;2024-03-08T08:16:06;44.53;;;26.40;;
22752;SDS011;11543;43.144;24.684;2024-03-08T08:18:34;42.78;;;26.95;;
22752;SDS011;11543;43.144;24.684;2024-03-08T08:21:00;45.65;;;27.38;;
22752;SDS011;11543;43.144;24.684;2024-03-08T08:23:56;50.92;;;30.50;;
22752;SDS011;11543;43.144;24.684;2024-03-08T08:26:24;50.78;;;28.92;;
22752;SDS011;11543;43.144;24.684;2024-03-08T08:28:55;81.07;;;45.40;;
22752;SDS011;11543;43.144;24.684;2024-03-08T08:31:20;59.85;;;33.92;;
22752;SDS011;11543;43.144;24.684;2024-03-08T08:33:48;62.38;;;34.25;;
22752;SDS011;11543;43.144;24.684;2024-03-08T08:36:14;54.38;;;32.53;;
22752;SDS011;11543;43.144;24.684;2024-03-08T08:38:40;55.53;;;32.60;;
22752;SDS011;11543;43.144;24.684;2024-03-08T08:41:09;61.72;;;34.70;;
22752;SDS011;11543;43.144;24.684;2024-03-08T08:43:36;54.97;;;33.13;;
22752;SDS011;11543;43.144;24.684;2024-03-08T08:46:01;64.18;;;34.22;;
22752;SDS011;11543;43.144;24.684;2024-03-08T08:48:27;67.70;;;36.25;;
22752;SDS011;11543;43.144;24.684;2024-03-08T08:50:54;62.30;;;36.30;;
22752;SDS011;11543;43.144;24.684;2024-03-08T08:53:20;67.93;;;36.67;;
22752;SDS011;11543;43.144;24.684;2024-03-08T08:55:47;65.90;;;37.67;;
22752;SDS011;11543;43.144;24.684;2024-03-08T08:58:22;61.60;;;35.85;;
22752;SDS011;11543;43.144;24.684;2024-03-08T09:00:57;62.65;;;36.70;;
22752;SDS011;11543;43.144;24.684;2024-03-08T09:03:22;63.55;;;35.70;;
22752;SDS011;11543;43.144;24.684;2024-03-08T09:05:49;64.90;;;34.40;;
22752;SDS011;11543;43.144;24.684;2024-03-08T09:08:16;61.70;;;34.47;;
22752;SDS011;11543;43.144;24.684;2024-03-08T09:10:42;64.03;;;35.10;;
22752;SDS011;11543;43.144;24.684;2024-03-08T09:13:08;67.68;;;37.80;;
22752;SDS011;11543;43.144;24.684;2024-03-08T09:15:35;73.28;;;38.65;;
22752;SDS011;11543;43.144;24.684;2024-03-08T09:18:05;69.90;;;38.30;;
22752;SDS011;11543;43.144;24.684;2024-03-08T09:20:31;67.03;;;36.83;;
22752;SDS011;11543;43.144;24.684;2024-03-08T09:22:57;71.60;;;38.60;;
22752;SDS011;11543;43.144;24.684;2024-03-08T09:25:23;72.18;;;38.00;;
22752;SDS011;11543;43.144;24.684;2024-03-08T09:27:49;68.47;;;36.88;;
22752;SDS011;11543;43.144;24.684;2024-03-08T09:30:17;67.50;;;37.38;;
22752;SDS011;11543;43.144;24.684;2024-03-08T09:32:43;67.95;;;37.28;;
22752;SDS011;11543;43.144;24.684;2024-03-08T09:35:08;68.28;;;35.85;;
22752;SDS011;11543;43.144;24.684;2024-03-08T09:37:34;73.68;;;37.58;;
22752;SDS011;11543;43.144;24.684;2024-03-08T09:40:00;69.57;;;36.75;;
22752;SDS011;11543;43.144;24.684;2024-03-08T09:42:29;72.28;;;37.70;;
22752;SDS011;11543;43.144;24.684;2024-03-08T09:44:57;70.72;;;36.50;;
22752;SDS011;11543;43.144;24.684;2024-03-08T09:47:26;71.43;;;36.25;;
22752;SDS011;11543;43.144;24.684;2024-03-08T09:50:00;70.45;;;35.45;;
22752;SDS011;11543;43.144;24.684;2024-03-08T09:55:23;71.90;;;36.25;;
22752;SDS011;11543;43.144;24.684;2024-03-08T09:58:06;65.95;;;35.35;;
22752;SDS011;11543;43.144;24.684;2024-03-08T10:00:52;85.38;;;39.80;;
22752;SDS011;11543;43.144;24.684;2024-03-08T10:03:19;102.28;;;47.80;;
22752;SDS011;11543;43.144;24.684;2024-03-08T10:05:47;110.78;;;53.13;;
22752;SDS011;11543;43.144;24.684;2024-03-08T10:08:25;86.18;;;42.00;;
22752;SDS011;11543;43.144;24.684;2024-03-08T10:10:59;75.82;;;37.92;;
22752;SDS011;11543;43.144;24.684;2024-03-08T10:13:34;72.93;;;37.88;;
22752;SDS011;11543;43.144;24.684;2024-03-08T10:16:00;81.65;;;38.95;;
22752;SDS011;11543;43.144;24.684;2024-03-08T10:28:44;65.68;;;32.55;;
22752;SDS011;11543;43.144;24.684;2024-03-08T10:31:10;63.42;;;32.97;;
22752;SDS011;11543;43.144;24.684;2024-03-08T10:33:36;72.40;;;34.30;;
22752;SDS011;11543;43.144;24.684;2024-03-08T10:36:13;69.75;;;34.58;;
22752;SDS011;11543;43.144;24.684;2024-03-08T10:38:40;67.78;;;33.33;;
22752;SDS011;11543;43.144;24.684;2024-03-08T10:41:39;61.63;;;32.78;;
22752;SDS011;11543;43.144;24.684;2024-03-08T10:47:34;66.70;;;34.38;;
22752;SDS011;11543;43.144;24.684;2024-03-08T10:50:19;69.55;;;33.70;;
22752;SDS011;11543;43.144;24.684;2024-03-08T10:52:58;67.75;;;34.22;;
22752;SDS011;11543;43.144;24.684;2024-03-08T10:55:39;65.35;;;33.78;;
22752;SDS011;11543;43.144;24.684;2024-03-08T10:58:32;69.18;;;34.38;;
22752;SDS011;11543;43.144;24.684;2024-03-08T11:02:00;73.72;;;36.10;;
22752;SDS011;11543;43.144;24.684;2024-03-08T11:04:36;69.57;;;35.33;;
22752;SDS011;11543;43.144;24.684;2024-03-08T11:07:02;102.25;;;54.72;;
22752;SDS011;11543;43.144;24.684;2024-03-08T11:09:42;107.22;;;55.45;;
22752;SDS011;11543;43.144;24.684;2024-03-08T11:14:49;78.70;;;41.80;;
22752;SDS011;11543;43.144;24.684;2024-03-08T11:17:16;80.18;;;41.60;;
22752;SDS011;11543;43.144;24.684;2024-03-08T11:19:48;79.13;;;38.97;;
22752;SDS011;11543;43.144;24.684;2024-03-08T11:22:21;88.35;;;43.33;;
22752;SDS011;11543;43.144;24.684;2024-03-08T11:24:49;75.28;;;38.90;;
22752;SDS011;11543;43.144;24.684;2024-03-08T11:27:14;78.13;;;39.05;;
22752;SDS011;11543;43.144;24.684;2024-03-08T11:29:40;75.25;;;37.63;;
22752;SDS011;11543;43.144;24.684;2024-03-08T11:32:14;80.65;;;40.65;;
22752;SDS011;11543;43.144;24.684;2024-03-08T11:34:42;84.15;;;42.35;;
22752;SDS011;11543;43.144;24.684;2024-03-08T11:37:13;79.47;;;40.10;;
22752;SDS011;11543;43.144;24.684;2024-03-08T11:39:46;76.13;;;38.53;;
22752;SDS011;11543;43.144;24.684;2024-03-08T11:42:13;68.40;;;36.78;;
22752;SDS011;11543;43.144;24.684;2024-03-08T11:44:39;72.70;;;35.75;;
22752;SDS011;11543;43.144;24.684;2024-03-08T11:47:09;71.90;;;36.83;;
22752;SDS011;11543;43.144;24.684;2024-03-08T11:49:36;76.50;;;37.65;;
22752;SDS011;11543;43.144;24.684;2024-03-08T11:52:02;77.82;;;37.97;;
22752;SDS011;11543;43.144;24.684;2024-03-08T11:54:30;77.18;;;37.13;;
22752;SDS011;11543;43.144;24.684;2024-03-08T11:56:59;74.65;;;37.08;;
22752;SDS011;11543;43.144;24.684;2024-03-08T12:02:00;76.82;;;37.40;;
22752;SDS011;11543;43.144;24.684;2024-03-08T12:04:28;80.05;;;38.88;;
22752;SDS011;11543;43.144;24.684;2024-03-08T12:06:54;82.63;;;42.60;;
22752;SDS011;11543;43.144;24.684;2024-03-08T12:09:20;87.15;;;41.90;;
22752;SDS011;11543;43.144;24.684;2024-03-08T12:11:50;94.78;;;48.55;;
22752;SDS011;11543;43.144;24.684;2024-03-08T12:14:16;100.00;;;50.38;;
22752;SDS011;11543;43.144;24.684;2024-03-08T12:16:43;92.20;;;46.22;;
22752;SDS011;11543;43.144;24.684;2024-03-08T12:19:09;87.57;;;43.30;;
22752;SDS011;11543;43.144;24.684;2024-03-08T12:21:35;98.75;;;46.00;;
22752;SDS011;11543;43.144;24.684;2024-03-08T12:24:05;87.45;;;44.63;;
22752;SDS011;11543;43.144;24.684;2024-03-08T12:26:36;88.47;;;43.08;;
22752;SDS011;11543;43.144;24.684;2024-03-08T12:29:24;89.22;;;42.63;;
22752;SDS011;11543;43.144;24.684;2024-03-08T12:31:53;85.68;;;43.20;;
22752;SDS011;11543;43.144;24.684;2024-03-08T12:34:19;88.55;;;43.15;;
22752;SDS011;11543;43.144;24.684;2024-03-08T12:36:48;86.72;;;44.58;;
22752;SDS011;11543;43.144;24.684;2024-03-08T12:39:19;98.57;;;45.95;;
22752;SDS011;11543;43.144;24.684;2024-03-08T12:41:52;85.57;;;42.67;;
22752;SDS011;11543;43.144;24.684;2024-03-08T12:44:22;83.55;;;41.38;;
22752;SDS011;11543;43.144;24.684;2024-03-08T12:46:48;91.72;;;46.97;;
22752;SDS011;11543;43.144;24.684;2024-03-08T12:49:14;94.15;;;48.78;;
22752;SDS011;11543;43.144;24.684;2024-03-08T12:51:46;130.05;;;63.47;;
22752;SDS011;11543;43.144;24.684;2024-03-08T12:54:11;219.43;;;106.97;;
22752;SDS011;11543;43.144;24.684;2024-03-08T12:56:40;147.88;;;68.75;;
22752;SDS011;11543;43.144;24.684;2024-03-08T12:59:08;119.70;;;59.58;;
22752;SDS011;11543;43.144;24.684;2024-03-08T13:01:38;115.70;;;56.33;;
22752;SDS011;11543;43.144;24.684;2024-03-08T13:04:09;108.97;;;54.05;;
22752;SDS011;11543;43.144;24.684;2024-03-08T13:06:53;116.60;;;56.67;;
22752;SDS011;11543;43.144;24.684;2024-03-08T13:09:36;99.60;;;51.00;;
22752;SDS011;11543;43.144;24.684;2024-03-08T13:12:11;88.60;;;47.08;;
22752;SDS011;11543;43.144;24.684;2024-03-08T13:14:58;86.80;;;44.25;;
22752;SDS011;11543;43.144;24.684;2024-03-08T13:17:25;92.43;;;44.80;;
22752;SDS011;11543;43.144;24.684;2024-03-08T13:20:02;95.40;;;47.42;;
22752;SDS011;11543;43.144;24.684;2024-03-08T13:22:53;95.93;;;47.53;;
22752;SDS011;11543;43.144;24.684;2024-03-08T13:25:19;96.15;;;48.75;;
22752;SDS011;11543;43.144;24.684;2024-03-08T13:27:53;89.20;;;45.83;;
22752;SDS011;11543;43.144;24.684;2024-03-08T13:30:22;83.53;;;41.78;;
22752;SDS011;11543;43.144;24.684;2024-03-08T13:32:51;81.57;;;42.80;;
22752;SDS011;11543;43.144;24.684;2024-03-08T13:35:18;76.50;;;40.47;;
22752;SDS011;11543;43.144;24.684;2024-03-08T13:37:53;76.70;;;39.10;;
22752;SDS011;11543;43.144;24.684;2024-03-08T13:40:21;80.25;;;41.63;;
22752;SDS011;11543;43.144;24.684;2024-03-08T13:42:50;78.63;;;40.85;;
22752;SDS011;11543;43.144;24.684;2024-03-08T13:45:25;79.05;;;40.22;;
22752;SDS011;11543;43.144;24.684;2024-03-08T13:47:59;89.63;;;44.30;;
22752;SDS011;11543;43.144;24.684;2024-03-08T13:50:24;108.40;;;57.40;;
22752;SDS011;11543;43.144;24.684;2024-03-08T13:53:11;116.75;;;64.40;;
22752;SDS011;11543;43.144;24.684;2024-03-08T13:55:40;105.68;;;55.50;;
22752;SDS011;11543;43.144;24.684;2024-03-08T13:58:10;101.85;;;55.38;;
22752;SDS011;11543;43.144;24.684;2024-03-08T14:00:39;103.70;;;55.08;;
22752;SDS011;11543;43.144;24.684;2024-03-08T14:03:08;96.15;;;48.80;;
22752;SDS011;11543;43.144;24.684;2024-03-08T14:06:19;93.82;;;50.38;;
22752;SDS011;11543;43.144;24.684;2024-03-08T14:08:51;86.82;;;44.88;;
22752;SDS011;11543;43.144;24.684;2024-03-08T14:11:24;82.85;;;42.28;;
22752;SDS011;11543;43.144;24.684;2024-03-08T14:13:53;81.57;;;43.22;;
22752;SDS011;11543;43.144;24.684;2024-03-08T14:16:19;84.18;;;46.75;;
22752;SDS011;11543;43.144;24.684;2024-03-08T14:18:44;84.20;;;46.78;;
22752;SDS011;11543;43.144;24.684;2024-03-08T14:21:10;74.22;;;39.05;;
22752;SDS011;11543;43.144;24.684;2024-03-08T14:23:36;76.95;;;40.03;;
22752;SDS011;11543;43.144;24.684;2024-03-08T14:26:05;79.65;;;38.10;;
22752;SDS011;11543;43.144;24.684;2024-03-08T14:28:32;66.85;;;37.33;;
22752;SDS011;11543;43.144;24.684;2024-03-08T14:30:58;73.45;;;37.00;;
22752;SDS011;11543;43.144;24.684;2024-03-08T14:33:28;68.70;;;34.92;;
22752;SDS011;11543;43.144;24.684;2024-03-08T14:35:53;67.38;;;35.15;;
22752;SDS011;11543;43.144;24.684;2024-03-08T14:38:19;75.40;;;37.03;;
22752;SDS011;11543;43.144;24.684;2024-03-08T14:40:45;88.10;;;45.03;;
22752;SDS011;11543;43.144;24.684;2024-03-08T14:43:12;106.68;;;55.00;;
22752;SDS011;11543;43.144;24.684;2024-03-08T14:45:41;94.50;;;47.35;;
22752;SDS011;11543;43.144;24.684;2024-03-08T14:48:07;81.68;;;43.75;;
22752;SDS011;11543;43.144;24.684;2024-03-08T14:50:33;84.05;;;45.03;;
22752;SDS011;11543;43.144;24.684;2024-03-08T14:52:59;84.93;;;45.00;;
22752;SDS011;11543;43.144;24.684;2024-03-08T14:55:25;77.85;;;41.28;;
22752;SDS011;11543;43.144;24.684;2024-03-08T14:57:52;76.35;;;37.67;;
22752;SDS011;11543;43.144;24.684;2024-03-08T15:00:19;71.57;;;36.22;;
22752;SDS011;11543;43.144;24.684;2024-03-08T15:03:00;71.30;;;35.33;;
22752;SDS011;11543;43.144;24.684;2024-03-08T15:05:35;72.30;;;36.38;;
22752;SDS011;11543;43.144;24.684;2024-03-08T15:08:07;70.90;;;36.55;;
22752;SDS011;11543;43.144;24.684;2024-03-08T15:10:36;71.20;;;36.88;;
22752;SDS011;11543;43.144;24.684;2024-03-08T15:13:02;70.25;;;36.05;;
22752;SDS011;11543;43.144;24.684;2024-03-08T15:15:38;75.53;;;38.45;;
22752;SDS011;11543;43.144;24.684;2024-03-08T15:18:07;79.22;;;40.78;;
22752;SDS011;11543;43.144;24.684;2024-03-08T15:20:33;76.93;;;40.15;;
22752;SDS011;11543;43.144;24.684;2024-03-08T15:22:59;76.18;;;37.17;;
22752;SDS011;11543;43.144;24.684;2024-03-08T15:25:25;71.10;;;38.38;;
22752;SDS011;11543;43.144;24.684;2024-03-08T15:27:54;81.78;;;43.10;;
22752;SDS011;11543;43.144;24.684;2024-03-08T15:30:21;76.70;;;40.75;;
22752;SDS011;11543;43.144;24.684;2024-03-08T15:33:12;80.60;;;40.53;;
22752;SDS011;11543;43.144;24.684;2024-03-08T15:35:59;95.90;;;47.47;;
22752;SDS011;11543;43.144;24.684;2024-03-08T15:38:50;100.22;;;50.65;;
22752;SDS011;11543;43.144;24.684;2024-03-08T15:41:16;98.80;;;50.95;;
22752;SDS011;11543;43.144;24.684;2024-03-08T15:43:43;97.18;;;49.15;;
22752;SDS011;11543;43.144;24.684;2024-03-08T15:46:09;99.82;;;51.45;;
22752;SDS011;11543;43.144;24.684;2024-03-08T15:48:40;96.00;;;51.75;;
22752;SDS011;11543;43.144;24.684;2024-03-08T15:51:09;81.28;;;43.75;;
22752;SDS011;11543;43.144;24.684;2024-03-08T15:54:06;74.93;;;39.90;;
22752;SDS011;11543;43.144;24.684;2024-03-08T15:56:33;81.40;;;38.90;;
22752;SDS011;11543;43.144;24.684;2024-03-08T15:59:02;74.40;;;37.95;;
22752;SDS011;11543;43.144;24.684;2024-03-08T16:04:29;71.65;;;36.08;;
22752;SDS011;11543;43.144;24.684;2024-03-08T16:07:05;78.55;;;38.55;;
22752;SDS011;11543;43.144;24.684;2024-03-08T16:19:46;77.57;;;42.10;;
22752;SDS011;11543;43.144;24.684;2024-03-08T16:29:47;123.03;;;73.03;;
22752;SDS011;11543;43.144;24.684;2024-03-08T17:00:34;83.18;;;41.83;;
22752;SDS011;11543;43.144;24.684;2024-03-08T17:03:09;89.47;;;46.25;;